createdAt,value
2023-02-03T00:01:10.433Z,101382.78
2023-02-03T00:04:13.369Z,101368.00
2023-02-03T00:07:17.431Z,101361.78
2023-02-03T00:10:21.427Z,101353.63
2023-02-03T00:13:25.845Z,101344.25
2023-02-03T00:16:28.508Z,101355.56
2023-02-03T00:19:31.162Z,101355.59
2023-02-03T00:22:35.190Z,101335.34
2023-02-03T00:25:38.188Z,101341.38
2023-02-03T00:28:41.026Z,101332.66
2023-02-03T00:31:43.698Z,101324.50
2023-02-03T00:34:46.401Z,101328.19
2023-02-03T00:37:54.129Z,101328.19
2023-02-03T00:40:56.728Z,101307.69
2023-02-03T00:43:59.534Z,101314.94
2023-02-03T00:47:02.168Z,101309.75
2023-02-03T00:50:05.502Z,101307.66
2023-02-03T00:53:09.455Z,101293.41
2023-02-03T00:56:13.393Z,101293.47
2023-02-03T00:59:15.983Z,101296.00
2023-02-03T01:02:18.674Z,101285.63
2023-02-03T01:05:21.312Z,101286.25
2023-02-03T01:08:25.231Z,101282.44
2023-02-03T01:11:28.833Z,101270.19
2023-02-03T01:14:32.006Z,101262.09
2023-02-03T01:17:34.727Z,101260.94
2023-02-03T01:20:37.290Z,101252.84
2023-02-03T01:23:41.475Z,101243.84
2023-02-03T01:26:44.478Z,101244.47
2023-02-03T01:29:47.086Z,101229.47
2023-02-03T01:32:49.659Z,101217.81
2023-02-03T01:35:52.255Z,101209.88
2023-02-03T01:38:56.558Z,101200.97
2023-02-03T01:41:59.146Z,101194.91
2023-02-03T01:45:02.101Z,101192.00
2023-02-03T01:48:05.573Z,101168.25
2023-02-03T01:51:08.472Z,101169.81
2023-02-03T01:54:16.203Z,101153.91
2023-02-03T01:57:23.670Z,101144.28
2023-02-03T02:00:26.909Z,101145.88
2023-02-03T02:03:34.021Z,101166.41
2023-02-03T02:06:36.672Z,101173.31
2023-02-03T02:09:40.964Z,101173.19
2023-02-03T02:12:43.971Z,101158.06
2023-02-03T02:15:55.560Z,101153.50
2023-02-03T02:19:36.104Z,101165.38
2023-02-03T02:22:55.926Z,101162.47
2023-02-03T02:26:19.021Z,101156.19
2023-02-03T02:29:45.454Z,101149.19
2023-02-03T02:33:01.887Z,101129.13
2023-02-03T02:36:14.571Z,101134.44
2023-02-03T02:39:24.175Z,101138.56
2023-02-03T02:42:36.148Z,101131.56
2023-02-03T02:45:46.730Z,101133.53
2023-02-03T02:48:59.158Z,101135.19
2023-02-03T02:52:05.750Z,101127.28
2023-02-03T02:55:12.719Z,101134.44
2023-02-03T02:58:19.017Z,101150.28
2023-02-03T03:01:21.778Z,101132.56
2023-02-03T03:04:28.780Z,101129.84
2023-02-03T03:07:37.910Z,101121.88
2023-02-03T03:10:43.762Z,101112.16
2023-02-03T03:13:50.659Z,101104.28
2023-02-03T03:16:58.495Z,101097.13
2023-02-03T03:20:06.868Z,101090.03
2023-02-03T03:23:15.181Z,101077.59
2023-02-03T03:26:27.734Z,101086.31
2023-02-03T03:29:35.151Z,101061.84
2023-02-03T03:32:39.021Z,101063.63
2023-02-03T03:35:50.152Z,101072.31
2023-02-03T03:38:58.167Z,101060.00
2023-02-03T03:42:07.862Z,101044.16
2023-02-03T03:45:17.352Z,101034.41
2023-02-03T03:48:28.631Z,101025.41
2023-02-03T03:51:36.376Z,101033.28
2023-02-03T03:54:42.058Z,101040.47
2023-02-03T03:57:49.501Z,101029.06
2023-02-03T04:00:54.857Z,101046.69
2023-02-03T04:04:01.153Z,101042.28
2023-02-03T04:07:05.200Z,101040.72
2023-02-03T04:10:13.855Z,101028.16
2023-02-03T04:13:19.795Z,101027.72
2023-02-03T04:16:22.385Z,101023.28
2023-02-03T04:19:25.215Z,100997.84
2023-02-03T04:22:29.163Z,101008.41
2023-02-03T04:25:31.742Z,100997.75
2023-02-03T04:28:34.362Z,100987.34
2023-02-03T04:31:38.512Z,100982.94
2023-02-03T04:34:41.118Z,100981.03
2023-02-03T04:37:45.268Z,100967.25
2023-02-03T04:40:48.039Z,100969.75
2023-02-03T04:43:50.646Z,100971.50
2023-02-03T04:46:53.209Z,100967.94
2023-02-03T04:49:55.792Z,100977.75
2023-02-03T04:53:00.427Z,100973.25
2023-02-03T04:56:03.286Z,100975.16
2023-02-03T04:59:05.927Z,100976.09
2023-02-03T05:02:08.880Z,100977.88
2023-02-03T05:05:11.473Z,100963.69
2023-02-03T05:08:15.420Z,100943.31
2023-02-03T05:11:18.026Z,100942.16
2023-02-03T05:14:21.012Z,100936.09
2023-02-03T05:17:23.664Z,100935.41
2023-02-03T05:20:26.552Z,100930.03
2023-02-03T05:23:30.641Z,100909.88
2023-02-03T05:26:33.569Z,100905.44
2023-02-03T05:29:36.145Z,100895.47
2023-02-03T05:32:38.758Z,100902.84
2023-02-03T05:35:41.371Z,100884.56
2023-02-03T05:38:45.369Z,100906.53
2023-02-03T05:41:52.666Z,100908.91
2023-02-03T05:44:55.272Z,100908.91
2023-02-03T05:47:57.864Z,100898.34
2023-02-03T05:51:00.987Z,100891.34
2023-02-03T05:54:05.079Z,100887.88
2023-02-03T05:57:07.702Z,100883.47
2023-02-03T06:00:11.662Z,100878.88
2023-02-03T06:03:14.342Z,100896.84
2023-02-03T06:06:17.941Z,100882.59
2023-02-03T06:09:21.878Z,100886.00
2023-02-03T06:12:24.595Z,100877.16
2023-02-03T06:15:27.209Z,100873.75
2023-02-03T06:18:30.111Z,100874.00
2023-02-03T06:21:32.723Z,100849.44
2023-02-03T06:24:36.677Z,100857.22
2023-02-03T06:27:39.273Z,100849.31
2023-02-03T06:30:42.039Z,100828.19
2023-02-03T06:33:44.679Z,100840.34
2023-02-03T06:36:48.338Z,100829.56
2023-02-03T06:39:52.298Z,100827.00
2023-02-03T06:42:54.883Z,100839.56
2023-02-03T06:45:57.657Z,100835.81
2023-02-03T06:49:00.292Z,100822.69
2023-02-03T06:52:02.924Z,100820.13
2023-02-03T06:55:08.115Z,100812.19
2023-02-03T06:58:10.686Z,100815.31
2023-02-03T07:01:13.335Z,100810.22
2023-02-03T07:04:15.953Z,100820.03
2023-02-03T07:07:18.857Z,100806.63
2023-02-03T07:10:22.919Z,100805.81
2023-02-03T07:13:25.578Z,100805.63
2023-02-03T07:16:28.493Z,100818.78
2023-02-03T07:19:31.158Z,100796.59
2023-02-03T07:22:33.799Z,100780.81
2023-02-03T07:25:37.892Z,100785.00
2023-02-03T07:28:40.567Z,100785.22
2023-02-03T07:31:43.434Z,100766.63
2023-02-03T07:34:46.078Z,100783.28
2023-02-03T07:37:48.985Z,100787.44
2023-02-03T07:40:53.560Z,100778.91
2023-02-03T07:43:56.173Z,100782.22
2023-02-03T07:46:58.755Z,100787.44
2023-02-03T07:50:01.332Z,100795.56
2023-02-03T07:53:04.649Z,100790.19
2023-02-03T07:56:08.723Z,100782.16
2023-02-03T07:59:11.323Z,100790.19
2023-02-03T08:02:14.061Z,100796.91
2023-02-03T08:05:18.356Z,100784.53
2023-02-03T08:08:21.211Z,100798.50
2023-02-03T08:11:25.198Z,100795.78
2023-02-03T08:14:27.824Z,100815.22
2023-02-03T08:17:30.408Z,100843.94
2023-02-03T08:20:33.001Z,100869.84
2023-02-03T08:23:35.584Z,100863.63
2023-02-03T08:26:39.545Z,100874.94
2023-02-03T08:29:42.147Z,100887.28
2023-02-03T08:32:44.800Z,100881.06
2023-02-03T08:35:48.302Z,100880.00
2023-02-03T08:38:50.898Z,100890.75
2023-02-03T08:41:55.058Z,100877.66
2023-02-03T08:44:57.686Z,100892.72
2023-02-03T08:48:00.274Z,100898.63
2023-02-03T08:51:02.894Z,100903.09
2023-02-03T08:54:05.708Z,100906.50
2023-02-03T08:57:10.577Z,100909.25
2023-02-03T09:00:14.505Z,100912.41
2023-02-03T09:03:17.066Z,100901.03
2023-02-03T09:06:22.131Z,100886.09
2023-02-03T09:09:26.567Z,100898.34
2023-02-03T09:12:30.557Z,100898.53
2023-02-03T09:15:33.150Z,100902.69
2023-02-03T09:18:36.249Z,100889.66
2023-02-03T09:21:41.326Z,100897.75
2023-02-03T09:24:46.012Z,100902.69
2023-02-03T09:27:49.968Z,100926.47
2023-02-03T09:30:52.713Z,100913.44
2023-02-03T09:33:55.308Z,100894.91
2023-02-03T09:36:57.910Z,100901.59
2023-02-03T09:40:00.584Z,100898.78
2023-02-03T09:43:39.503Z,100910.69
2023-02-03T09:46:47.813Z,100927.22
2023-02-03T09:49:53.255Z,100938.19
2023-02-03T09:52:56.766Z,100937.69
2023-02-03T09:56:00.428Z,100943.81
2023-02-03T09:59:04.122Z,100935.97
2023-02-03T10:02:23.081Z,100951.56
2023-02-03T10:05:37.043Z,100963.84
2023-02-03T10:08:50.534Z,100968.06
2023-02-03T10:12:12.551Z,100980.22
2023-02-03T10:15:42.562Z,100967.94
2023-02-03T10:18:50.785Z,100974.16
2023-02-03T10:21:57.163Z,100986.50
2023-02-03T10:25:04.313Z,101000.75
2023-02-03T10:28:16.061Z,101008.84
2023-02-03T10:31:21.946Z,100996.22
2023-02-03T10:34:27.139Z,101000.50
2023-02-03T10:37:33.142Z,101006.66
2023-02-03T10:40:35.849Z,101007.81
2023-02-03T10:43:51.581Z,101014.03
2023-02-03T10:46:54.317Z,101027.13
2023-02-03T10:49:59.061Z,101021.91
2023-02-03T10:53:22.737Z,101030.78
2023-02-03T10:56:27.863Z,101019.63
2023-02-03T10:59:33.270Z,101022.75
2023-02-03T11:02:35.983Z,101043.38
2023-02-03T11:05:41.127Z,101033.66
2023-02-03T11:08:47.191Z,101033.50
2023-02-03T11:11:49.767Z,101066.66
2023-02-03T11:14:54.927Z,101055.84
2023-02-03T11:17:57.545Z,101055.28
2023-02-03T11:21:01.577Z,101062.75
2023-02-03T11:24:07.806Z,101053.28
2023-02-03T11:27:14.676Z,101046.81
2023-02-03T11:30:22.015Z,101067.09
2023-02-03T11:33:28.708Z,101043.94
2023-02-03T11:36:34.965Z,101056.34
2023-02-03T11:39:39.069Z,101059.75
2023-02-03T11:42:44.007Z,101043.84
2023-02-03T11:45:50.425Z,101059.78
2023-02-03T11:49:05.209Z,101049.56
2023-02-03T11:52:29.542Z,101063.06
2023-02-03T11:55:43.810Z,101052.56
2023-02-03T11:59:15.036Z,101051.78
2023-02-03T12:03:07.039Z,101057.16
2023-02-03T12:06:28.362Z,101052.66
2023-02-03T12:09:47.255Z,101063.31
2023-02-03T12:12:58.704Z,101066.22
2023-02-03T12:16:15.239Z,101114.63
2023-02-03T12:19:29.915Z,101102.22
2023-02-03T12:22:39.563Z,101103.59
2023-02-03T12:25:59.105Z,101117.25
2023-02-03T12:29:06.660Z,101114.91
2023-02-03T12:32:18.190Z,101103.66
2023-02-03T12:35:26.301Z,101122.28
2023-02-03T12:38:35.912Z,101134.63
2023-02-03T12:41:45.339Z,101131.28
2023-02-03T12:44:53.757Z,101133.53
2023-02-03T12:48:01.572Z,101130.78
2023-02-03T12:51:12.390Z,101129.91
2023-02-03T12:54:30.291Z,101113.97
2023-02-03T12:57:41.648Z,101151.78
2023-02-03T13:00:47.313Z,101134.34
2023-02-03T13:03:56.824Z,101123.25
2023-02-03T13:07:07.825Z,101126.69
2023-02-03T13:10:20.782Z,101136.38
2023-02-03T13:13:34.863Z,101157.00
2023-02-03T13:16:43.444Z,101141.06
2023-02-03T13:19:50.994Z,101159.41
2023-02-03T13:22:53.694Z,101149.78
2023-02-03T13:26:08.651Z,101144.47
2023-02-03T13:29:29.502Z,101169.19
2023-02-03T13:32:58.501Z,101163.13
2023-02-03T13:36:14.370Z,101171.06
2023-02-03T13:39:35.352Z,101148.19
2023-02-03T13:42:41.729Z,101167.47
2023-02-03T13:45:50.871Z,101165.06
2023-02-03T13:48:55.286Z,101164.28
2023-02-03T13:51:58.612Z,101183.75
2023-02-03T13:55:02.318Z,101181.94
2023-02-03T13:58:07.529Z,101168.78
2023-02-03T14:01:33.741Z,101166.94
2023-02-03T14:04:54.404Z,101169.59
2023-02-03T14:07:57.271Z,101176.63
2023-02-03T14:11:39.911Z,101188.88
2023-02-03T14:15:04.009Z,101176.53
2023-02-03T14:18:34.550Z,101164.31
2023-02-03T14:21:40.737Z,101191.59
2023-02-03T14:24:47.047Z,101205.94
2023-02-03T14:27:59.792Z,101189.91
2023-02-03T14:31:12.656Z,101197.22
2023-02-03T14:34:17.990Z,101190.09
2023-02-03T14:37:24.581Z,101198.41
2023-02-03T14:40:42.851Z,101196.44
2023-02-03T14:43:55.676Z,101197.22
2023-02-03T14:47:09.742Z,101220.22
2023-02-03T14:50:29.803Z,101212.16
2023-02-03T14:53:50.512Z,101197.34
2023-02-03T14:57:19.654Z,101218.34
2023-02-03T15:00:34.408Z,101213.28
2023-02-03T15:03:41.805Z,101222.94
2023-02-03T15:06:48.204Z,101223.56
2023-02-03T15:09:52.294Z,101231.72
2023-02-03T15:12:56.904Z,101256.50
2023-02-03T15:16:02.517Z,101226.66
2023-02-03T15:19:17.890Z,101227.63
2023-02-03T15:22:23.808Z,101231.84
2023-02-03T15:25:29.741Z,101238.19
2023-02-03T15:28:32.595Z,101242.34
2023-02-03T15:31:40.071Z,101233.63
2023-02-03T15:34:45.696Z,101244.06
2023-02-03T15:37:54.659Z,101255.44
2023-02-03T15:40:59.238Z,101276.63
2023-02-03T15:44:05.767Z,101252.16
2023-02-03T15:47:22.037Z,101291.81
2023-02-03T15:50:31.692Z,101286.41
2023-02-03T15:53:47.727Z,101277.72
2023-02-03T15:56:57.495Z,101278.72
2023-02-03T16:00:02.002Z,101293.47
2023-02-03T16:03:07.894Z,101283.00
2023-02-03T16:06:16.713Z,101275.84
2023-02-03T16:09:30.306Z,101287.53
2023-02-03T16:12:34.664Z,101292.50
2023-02-03T16:15:37.681Z,101267.34
2023-02-03T16:18:40.660Z,101276.84
2023-02-03T16:21:54.226Z,101276.72
2023-02-03T16:24:58.269Z,101291.94
2023-02-03T16:28:20.386Z,101294.75
2023-02-03T16:31:41.008Z,101304.66
2023-02-03T16:35:01.562Z,101285.94
2023-02-03T16:38:25.449Z,101292.31
2023-02-03T16:41:47.366Z,101277.47
2023-02-03T16:45:07.686Z,101306.44
2023-02-03T16:48:29.466Z,101306.59
2023-02-03T16:51:39.473Z,101316.50
2023-02-03T16:54:42.127Z,101301.59
2023-02-03T16:57:46.068Z,101316.66
2023-02-03T17:00:51.412Z,101329.06
2023-02-03T17:03:54.035Z,101345.97
2023-02-03T17:06:56.613Z,101328.38
2023-02-03T17:09:59.201Z,101336.25
2023-02-03T17:13:03.195Z,101375.16
2023-02-03T17:16:11.717Z,101355.00
2023-02-03T17:19:14.337Z,101367.41
2023-02-03T17:22:16.983Z,101342.72
2023-02-03T17:25:19.657Z,101364.72
2023-02-03T17:28:23.637Z,101385.88
2023-02-03T17:31:26.409Z,101377.31
2023-02-03T17:34:29.046Z,101392.94
2023-02-03T17:37:33.468Z,101391.16
2023-02-03T17:54:06.004Z,101437.94
2023-02-03T17:57:08.623Z,101448.28
2023-02-03T18:00:14.142Z,101467.00
2023-02-03T18:03:16.694Z,101459.78
2023-02-03T18:06:21.199Z,101462.38
2023-02-03T18:09:23.863Z,101469.47
2023-02-03T18:12:26.618Z,101476.69
2023-02-03T18:15:30.553Z,101483.56
2023-02-03T18:18:34.662Z,101492.47
2023-02-03T18:21:39.796Z,101497.75
2023-02-03T18:24:44.816Z,101498.72
2023-02-03T18:27:47.443Z,101503.81
2023-02-03T18:30:51.941Z,101506.47
2023-02-03T18:33:54.634Z,101501.28
2023-02-03T18:36:57.196Z,101509.16
2023-02-03T18:40:00.646Z,101501.13
2023-02-03T18:43:03.372Z,101519.50
2023-02-03T18:46:08.902Z,101530.22
2023-02-03T18:49:12.983Z,101537.16
2023-02-03T18:52:15.554Z,101540.66
2023-02-03T18:55:18.309Z,101525.00
2023-02-03T18:58:20.887Z,101546.75
2023-02-03T19:01:27.804Z,101556.47
2023-02-03T19:04:30.554Z,101570.41
2023-02-03T19:07:33.158Z,101589.00
2023-02-03T19:10:36.249Z,101585.41
2023-02-03T19:13:38.892Z,101607.50
2023-02-03T19:16:43.662Z,101609.22
2023-02-03T19:19:46.239Z,101626.09
2023-02-03T19:22:48.899Z,101625.88
2023-02-03T19:25:52.148Z,101624.97
2023-02-03T19:28:55.718Z,101635.66
2023-02-03T19:31:59.839Z,101638.28
2023-02-03T19:35:02.539Z,101637.34
2023-02-03T19:38:05.751Z,101644.53
2023-02-03T19:41:09.482Z,101655.03
2023-02-03T19:44:12.037Z,101657.69
2023-02-03T19:47:16.062Z,101663.94
2023-02-03T19:50:18.811Z,101669.09
2023-02-03T19:53:21.538Z,101669.91
2023-02-03T19:56:24.128Z,101688.25
2023-02-03T19:59:26.710Z,101683.97
2023-02-03T20:02:30.956Z,101697.91
2023-02-03T20:05:33.768Z,101697.19
2023-02-03T20:08:36.365Z,101703.16
2023-02-03T20:11:39.008Z,101717.25
2023-02-03T20:14:41.584Z,101716.56
2023-02-03T20:17:45.518Z,101719.22
2023-02-03T20:20:51.531Z,101728.66
2023-02-03T20:23:54.568Z,101732.94
2023-02-03T20:26:57.164Z,101745.25
2023-02-03T20:29:59.783Z,101757.44
2023-02-03T20:33:04.660Z,101767.28
2023-02-03T20:36:09.221Z,101781.38
2023-02-03T20:39:19.124Z,101789.94
2023-02-03T20:42:21.771Z,101811.34
2023-02-03T20:45:25.323Z,101828.41
2023-02-03T20:48:30.296Z,101840.59
2023-02-03T20:51:33.071Z,101852.13
2023-02-03T20:54:35.654Z,101857.44
2023-02-03T20:57:38.249Z,101878.53
2023-02-03T21:00:40.838Z,101887.31
2023-02-03T21:04:02.460Z,101890.91
2023-02-03T21:07:13.880Z,101897.91
2023-02-03T21:10:20.544Z,101920.75
2023-02-03T21:13:24.375Z,101943.56
2023-02-03T21:16:39.305Z,101946.19
2023-02-03T21:19:43.551Z,101964.63
2023-02-03T21:22:46.125Z,101975.13
2023-02-03T21:25:48.694Z,101987.38
2023-02-03T21:28:52.412Z,101999.69
2023-02-03T21:31:55.832Z,102011.97
2023-02-03T21:35:00.300Z,102019.03
2023-02-03T21:38:04.348Z,102024.28
2023-02-03T21:41:15.832Z,102029.56
2023-02-03T21:44:27.713Z,102041.84
2023-02-03T21:47:31.185Z,102037.44
2023-02-03T21:50:36.428Z,102055.84
2023-02-03T21:53:39.863Z,102059.38
2023-02-03T21:56:43.138Z,102062.03
2023-02-03T21:59:46.909Z,102075.16
2023-02-03T22:02:59.503Z,102077.66
2023-02-03T22:06:17.760Z,102086.47
2023-02-03T22:09:22.025Z,102094.41
2023-02-03T22:12:24.676Z,102103.13
2023-02-03T22:15:27.268Z,102123.34
2023-02-03T22:18:29.863Z,102129.41
2023-02-03T22:21:33.825Z,102146.09
2023-02-03T22:24:36.386Z,102147.06
2023-02-03T22:27:38.958Z,102161.91
2023-02-03T22:30:42.094Z,102170.69
2023-02-03T22:33:44.930Z,102187.44
2023-02-03T22:36:48.857Z,102203.16
2023-02-03T22:39:51.453Z,102219.81
2023-02-03T22:42:54.023Z,102231.22
2023-02-03T22:45:56.833Z,102228.38
2023-02-03T22:48:59.413Z,102233.56
2023-02-03T22:52:03.344Z,102242.44
2023-02-03T22:55:07.257Z,102246.88
2023-02-03T22:58:09.904Z,102262.72
2023-02-03T23:01:12.503Z,102277.72
2023-02-03T23:04:15.104Z,102280.34
2023-02-03T23:07:19.270Z,102291.75
2023-02-03T23:10:24.134Z,102297.00
2023-02-03T23:13:26.900Z,102294.34
2023-02-03T23:16:29.447Z,102301.25
2023-02-03T23:19:32.064Z,102299.50
2023-02-03T23:22:36.337Z,102312.78
2023-02-03T23:25:38.937Z,102322.28
2023-02-03T23:28:41.591Z,102327.53
2023-02-03T23:31:44.246Z,102329.34
2023-02-03T23:35:04.723Z,102331.88
2023-02-03T23:38:08.660Z,102343.16
2023-02-03T23:41:11.242Z,102355.31
2023-02-03T23:44:13.865Z,102368.66
2023-02-03T23:47:16.494Z,102371.41
2023-02-03T23:50:20.046Z,102381.13
2023-02-03T23:53:24.077Z,102379.41
2023-02-03T23:56:26.687Z,102382.03
2023-02-03T23:59:29.246Z,102395.88
